createdAt,value
2023-04-01T00:00:49.930Z,99.99
2023-04-01T00:01:49.935Z,99.99
2023-04-01T00:02:50.043Z,99.99
2023-04-01T00:03:50.072Z,99.99
2023-04-01T00:04:50.019Z,99.99
2023-04-01T00:05:50.035Z,99.99
2023-04-01T00:06:50.049Z,99.99
2023-04-01T00:07:50.073Z,99.99
2023-04-01T00:08:50.105Z,99.99
2023-04-01T00:09:50.125Z,99.99
2023-04-01T00:10:50.142Z,99.99
2023-04-01T00:11:50.161Z,99.99
2023-04-01T00:12:50.196Z,99.99
2023-04-01T00:13:50.224Z,99.99
2023-04-01T00:14:50.249Z,99.99
2023-04-01T00:15:50.288Z,99.99
2023-04-01T00:16:50.338Z,99.99
2023-04-01T00:17:50.313Z,99.99
2023-04-01T00:18:50.344Z,99.99
2023-04-01T00:19:50.347Z,99.99
2023-04-01T00:20:50.372Z,99.99
2023-04-01T00:21:50.396Z,99.99
2023-04-01T00:22:50.419Z,99.99
2023-04-01T00:23:50.437Z,99.99
2023-04-01T00:24:50.467Z,99.99
2023-04-01T00:25:50.535Z,99.99
2023-04-01T00:26:50.515Z,99.99
2023-04-01T00:27:50.567Z,99.99
2023-04-01T00:28:50.588Z,99.99
2023-04-01T00:29:50.576Z,99.99
2023-04-01T00:30:50.599Z,99.99
2023-04-01T00:31:50.656Z,99.99
2023-04-01T00:32:50.668Z,99.99
2023-04-01T00:33:50.686Z,99.99
2023-04-01T00:34:50.692Z,99.99
2023-04-01T00:35:50.748Z,99.99
2023-04-01T00:36:50.750Z,99.99
2023-04-01T00:37:50.762Z,99.99
2023-04-01T00:38:50.786Z,99.99
2023-04-01T00:39:50.806Z,99.99
2023-04-01T00:40:50.833Z,99.99
2023-04-01T00:41:50.851Z,99.99
2023-04-01T00:42:50.908Z,99.99
2023-04-01T00:43:50.907Z,99.99
2023-04-01T00:44:50.930Z,99.99
2023-04-01T00:45:50.971Z,99.99
2023-04-01T00:46:51.017Z,99.99
2023-04-01T00:47:51.036Z,99.99
2023-04-01T00:48:51.050Z,99.99
2023-04-01T00:49:51.038Z,99.99
2023-04-01T00:50:51.055Z,99.99
2023-04-01T00:51:51.080Z,99.99
2023-04-01T00:52:51.103Z,99.99
2023-04-01T00:53:51.137Z,99.99
2023-04-01T00:54:51.153Z,99.99
2023-04-01T00:55:51.169Z,99.99
2023-04-01T00:56:51.235Z,99.99
2023-04-01T00:57:51.223Z,99.99
2023-04-01T00:58:51.244Z,99.99
2023-04-01T00:59:51.277Z,99.99
2023-04-01T01:00:51.334Z,99.99
2023-04-01T01:01:51.340Z,99.99
2023-04-01T01:02:51.366Z,99.99
2023-04-01T01:03:51.352Z,99.99
2023-04-01T01:04:51.379Z,99.99
2023-04-01T01:05:51.611Z,99.99
2023-04-01T01:06:51.425Z,99.99
2023-04-01T01:07:51.452Z,99.99
2023-04-01T01:08:51.478Z,99.99
2023-04-01T01:09:51.489Z,99.99
2023-04-01T01:10:51.526Z,99.99
2023-04-01T01:11:51.538Z,99.99
2023-04-01T01:12:51.563Z,99.99
2023-04-01T01:13:51.585Z,99.99
2023-04-01T01:14:51.604Z,99.99
2023-04-01T01:15:51.626Z,99.99
2023-04-01T01:16:51.717Z,99.99
2023-04-01T01:17:51.721Z,99.99
2023-04-01T01:18:51.693Z,99.99
2023-04-01T01:19:51.728Z,99.99
2023-04-01T01:20:51.739Z,99.99
2023-04-01T01:21:51.767Z,99.99
2023-04-01T01:22:51.787Z,99.99
2023-04-01T01:23:51.807Z,99.99
2023-04-01T01:24:51.834Z,99.99
2023-04-01T01:25:51.853Z,99.99
2023-04-01T01:26:51.874Z,99.99
2023-04-01T01:27:51.896Z,99.99
2023-04-01T01:28:51.921Z,99.99
2023-04-01T01:29:51.941Z,99.99
2023-04-01T01:30:51.991Z,99.99
2023-04-01T01:31:51.987Z,99.99
2023-04-01T01:32:52.046Z,99.99
2023-04-01T01:33:52.032Z,99.99
2023-04-01T01:34:52.053Z,99.99
2023-04-01T01:35:52.156Z,99.99
2023-04-01T01:36:52.101Z,99.99
2023-04-01T01:37:52.130Z,99.99
2023-04-01T01:38:52.154Z,99.99
2023-04-01T01:39:52.170Z,99.99
2023-04-01T01:40:52.196Z,99.99
2023-04-01T01:41:52.222Z,99.99
2023-04-01T01:42:52.238Z,99.99
2023-04-01T01:43:52.257Z,99.99
2023-04-01T01:44:52.283Z,99.99
2023-04-01T01:45:52.344Z,99.99
2023-04-01T01:46:52.327Z,99.99
2023-04-01T01:47:52.399Z,99.99
2023-04-01T01:48:52.377Z,99.99
2023-04-01T01:49:52.392Z,99.99
2023-04-01T01:50:52.414Z,99.99
2023-04-01T01:51:52.439Z,99.99
2023-04-01T01:52:52.465Z,99.99
2023-04-01T01:53:52.483Z,99.99
2023-04-01T01:54:52.507Z,99.99
2023-04-01T01:55:52.535Z,99.99
2023-04-01T01:56:52.668Z,99.99
2023-04-01T01:57:52.574Z,99.99
2023-04-01T01:58:52.599Z,99.99
2023-04-01T01:59:52.622Z,99.99
2023-04-01T02:00:52.646Z,99.99
2023-04-01T02:01:52.703Z,99.99
2023-04-01T02:02:52.739Z,99.99
2023-04-01T02:03:52.716Z,99.99
2023-04-01T02:04:52.872Z,99.99
2023-04-01T02:05:52.760Z,99.99
2023-04-01T02:06:52.789Z,99.99
2023-04-01T02:07:52.804Z,99.99
2023-04-01T02:08:52.871Z,99.99
2023-04-01T02:09:52.878Z,99.99
2023-04-01T02:10:52.864Z,99.99
2023-04-01T02:11:52.898Z,99.99
2023-04-01T02:12:52.916Z,99.99
2023-04-01T02:13:52.937Z,99.99
2023-04-01T02:14:52.956Z,99.99
2023-04-01T02:15:53.038Z,99.99
2023-04-01T02:16:53.010Z,99.99
2023-04-01T02:17:53.080Z,99.99
2023-04-01T02:18:53.048Z,99.99
2023-04-01T02:19:53.068Z,99.99
2023-04-01T02:20:53.099Z,99.99
2023-04-01T02:21:53.114Z,99.99
2023-04-01T02:22:53.134Z,99.99
2023-04-01T02:23:53.167Z,99.99
2023-04-01T02:24:53.183Z,99.99
2023-04-01T02:25:53.202Z,99.99
2023-04-01T02:26:53.225Z,99.99
2023-04-01T02:27:53.249Z,99.99
2023-04-01T02:28:53.272Z,99.99
2023-04-01T02:29:53.317Z,99.99
2023-04-01T02:30:53.321Z,99.99
2023-04-01T02:31:53.404Z,99.99
2023-04-01T02:32:53.380Z,99.99
2023-04-01T02:33:53.382Z,99.99
2023-04-01T02:34:53.414Z,99.99
2023-04-01T02:35:53.477Z,99.99
2023-04-01T02:36:53.475Z,99.99
2023-04-01T02:37:53.475Z,99.99
2023-04-01T02:38:53.496Z,99.99
2023-04-01T02:39:53.517Z,99.99
2023-04-01T02:40:53.548Z,99.99
2023-04-01T02:41:53.563Z,99.99
2023-04-01T02:42:53.596Z,99.99
2023-04-01T02:43:53.606Z,99.99
2023-04-01T02:44:53.630Z,99.99
2023-04-01T02:45:53.655Z,99.99
2023-04-01T02:46:53.852Z,99.99
2023-04-01T02:47:53.811Z,99.99
2023-04-01T02:48:53.722Z,99.99
2023-04-01T02:49:53.746Z,99.99
2023-04-01T02:50:53.774Z,99.99
2023-04-01T02:51:53.791Z,99.99
2023-04-01T02:52:53.821Z,99.99
2023-04-01T02:53:53.839Z,99.99
2023-04-01T02:54:53.895Z,99.99
2023-04-01T02:55:53.907Z,99.99
2023-04-01T02:56:53.999Z,99.99
2023-04-01T02:57:53.924Z,99.99
2023-04-01T02:58:53.959Z,99.99
2023-04-01T02:59:53.972Z,99.99
2023-04-01T03:00:54.025Z,99.99
2023-04-01T03:01:54.059Z,99.99
2023-04-01T03:02:54.154Z,99.99
2023-04-01T03:03:54.065Z,99.99
2023-04-01T03:04:54.086Z,99.99
2023-04-01T03:05:54.111Z,99.99
2023-04-01T03:06:54.130Z,99.99
2023-04-01T03:07:54.154Z,99.99
2023-04-01T03:08:54.190Z,99.99
2023-04-01T03:09:54.197Z,99.99
2023-04-01T03:10:54.231Z,99.99
2023-04-01T03:11:54.245Z,99.99
2023-04-01T03:12:54.264Z,99.99
2023-04-01T03:13:54.289Z,99.99
2023-04-01T03:14:54.315Z,99.99
2023-04-01T03:15:54.333Z,99.99
2023-04-01T03:16:54.462Z,99.99
2023-04-01T03:17:54.447Z,99.99
2023-04-01T03:18:54.421Z,99.99
2023-04-01T03:19:54.428Z,99.99
2023-04-01T03:20:54.445Z,99.99
2023-04-01T03:21:54.468Z,99.99
2023-04-01T03:22:54.486Z,99.99
2023-04-01T03:23:54.512Z,99.99
2023-04-01T03:24:54.531Z,99.99
2023-04-01T03:25:54.554Z,99.99
2023-04-01T03:26:54.582Z,99.99
2023-04-01T03:27:54.599Z,99.99
2023-04-01T03:28:54.622Z,99.99
2023-04-01T03:29:54.704Z,99.99
2023-04-01T03:30:54.743Z,99.99
2023-04-01T03:31:54.688Z,99.99
2023-04-01T03:32:54.753Z,99.99
2023-04-01T03:33:54.738Z,99.99
2023-04-01T03:34:54.756Z,99.99
2023-04-01T03:35:54.821Z,99.99
2023-04-01T03:36:54.807Z,99.99
2023-04-01T03:37:54.824Z,99.99
2023-04-01T03:38:54.850Z,99.99
2023-04-01T03:39:54.895Z,99.99
2023-04-01T03:40:54.908Z,99.99
2023-04-01T03:41:54.913Z,99.99
2023-04-01T03:42:54.997Z,99.99
2023-04-01T03:43:54.965Z,99.99
2023-04-01T03:44:54.981Z,99.99
2023-04-01T03:45:55.108Z,99.99
2023-04-01T03:46:55.025Z,99.99
2023-04-01T03:47:55.164Z,99.99
2023-04-01T03:48:55.076Z,99.99
2023-04-01T03:49:55.096Z,99.99
2023-04-01T03:50:55.117Z,99.99
2023-04-01T03:51:55.135Z,99.99
2023-04-01T03:52:55.160Z,99.99
2023-04-01T03:53:55.187Z,99.99
2023-04-01T03:54:55.202Z,99.99
2023-04-01T03:55:55.229Z,99.99
2023-04-01T03:56:55.262Z,99.99
2023-04-01T03:57:55.277Z,99.99
2023-04-01T03:58:55.301Z,99.99
2023-04-01T03:59:55.317Z,99.99
2023-04-01T04:00:55.345Z,99.99
2023-04-01T04:01:55.368Z,99.99
2023-04-01T04:02:55.487Z,99.99
2023-04-01T04:03:55.508Z,99.99
2023-04-01T04:04:55.538Z,99.99
2023-04-01T04:05:55.454Z,99.99
2023-04-01T04:06:55.476Z,99.99
2023-04-01T04:07:55.506Z,99.99
2023-04-01T04:08:55.517Z,99.99
2023-04-01T04:09:55.558Z,99.99
2023-04-01T04:10:55.566Z,99.99
2023-04-01T04:11:55.597Z,99.99
2023-04-01T04:12:55.632Z,99.99
2023-04-01T04:13:57.169Z,99.99
2023-04-01T04:14:55.662Z,99.99
2023-04-01T04:15:55.699Z,99.99
2023-04-01T04:16:55.706Z,99.99
2023-04-01T04:17:55.769Z,99.99
2023-04-01T04:18:55.743Z,99.99
2023-04-01T04:19:55.780Z,99.99
2023-04-01T04:20:55.787Z,99.99
2023-04-01T04:21:55.814Z,99.99
2023-04-01T04:22:55.833Z,99.99
2023-04-01T04:23:55.851Z,99.99
2023-04-01T04:24:55.894Z,99.99
2023-04-01T04:25:55.901Z,99.99
2023-04-01T04:26:55.932Z,99.99
2023-04-01T04:27:55.946Z,99.99
2023-04-01T04:28:55.965Z,99.99
2023-04-01T04:29:55.990Z,99.99
2023-04-01T04:30:56.018Z,99.99
2023-04-01T04:31:56.112Z,99.99
2023-04-01T04:32:56.159Z,99.99
2023-04-01T04:33:56.078Z,99.99
2023-04-01T04:34:56.099Z,99.99
2023-04-01T04:35:56.213Z,99.99
2023-04-01T04:36:56.146Z,99.99
2023-04-01T04:37:56.179Z,99.99
2023-04-01T04:38:56.190Z,99.99
2023-04-01T04:39:56.221Z,99.99
2023-04-01T04:40:56.248Z,99.99
2023-04-01T04:41:56.259Z,99.99
2023-04-01T04:42:56.287Z,99.99
2023-04-01T04:43:56.305Z,99.99
2023-04-01T04:44:56.320Z,99.99
2023-04-01T04:45:56.343Z,99.99
2023-04-01T04:46:58.359Z,99.99
2023-04-01T04:47:56.439Z,99.99
2023-04-01T04:48:56.440Z,99.99
2023-04-01T04:49:56.454Z,99.99
2023-04-01T04:50:56.454Z,99.99
2023-04-01T04:51:56.492Z,99.99
2023-04-01T04:52:56.511Z,99.99
2023-04-01T04:53:56.527Z,99.99
2023-04-01T04:54:56.555Z,99.99
2023-04-01T04:55:56.568Z,99.99
2023-04-01T04:56:56.646Z,99.99
2023-04-01T04:57:56.614Z,99.99
2023-04-01T04:58:56.632Z,99.99
2023-04-01T04:59:56.662Z,99.99
2023-04-01T05:00:56.735Z,99.99
2023-04-01T05:01:56.717Z,99.99
2023-04-01T05:02:56.799Z,99.99
2023-04-01T05:03:56.746Z,99.99
2023-04-01T05:04:56.766Z,99.99
2023-04-01T05:05:56.788Z,99.99
2023-04-01T05:06:56.815Z,99.99
2023-04-01T05:07:56.834Z,99.99
2023-04-01T05:08:56.856Z,99.99
2023-04-01T05:09:56.880Z,99.99
2023-04-01T05:10:56.904Z,99.99
2023-04-01T05:11:56.923Z,99.99
2023-04-01T05:12:56.946Z,99.99
2023-04-01T05:13:57.011Z,99.99
2023-04-01T05:14:57.003Z,99.99
2023-04-01T05:15:57.030Z,99.99
2023-04-01T05:16:57.065Z,99.99
2023-04-01T05:17:57.077Z,99.99
2023-04-01T05:18:57.079Z,99.99
2023-04-01T05:19:57.101Z,99.99
2023-04-01T05:20:57.134Z,99.99
2023-04-01T05:21:57.155Z,99.99
2023-04-01T05:22:57.164Z,99.99
2023-04-01T05:23:57.197Z,99.99
2023-04-01T05:24:57.217Z,99.99
2023-04-01T05:25:57.238Z,99.99
2023-04-01T05:26:57.262Z,99.99
2023-04-01T05:27:57.287Z,99.99
2023-04-01T05:28:57.317Z,99.99
2023-04-01T05:29:57.328Z,99.99
2023-04-01T05:30:57.403Z,99.99
2023-04-01T05:31:57.370Z,99.99
2023-04-01T05:32:57.425Z,99.99
2023-04-01T05:33:57.421Z,99.99
2023-04-01T05:34:57.436Z,99.99
2023-04-01T05:35:57.464Z,99.99
2023-04-01T05:36:57.494Z,99.99
2023-04-01T05:37:57.501Z,99.99
2023-04-01T05:38:57.536Z,99.99
2023-04-01T05:39:57.556Z,99.99
2023-04-01T05:40:57.574Z,99.99
2023-04-01T05:41:57.596Z,99.99
2023-04-01T05:42:57.640Z,99.99
2023-04-01T05:43:57.639Z,99.99
2023-04-01T05:44:57.661Z,99.99
2023-04-01T05:45:57.699Z,99.99
2023-04-01T05:46:57.711Z,99.99
2023-04-01T05:47:57.781Z,99.99
2023-04-01T05:48:57.755Z,99.99
2023-04-01T05:49:57.785Z,99.99
2023-04-01T05:50:57.801Z,99.99
2023-04-01T05:51:57.826Z,99.99
2023-04-01T05:52:57.845Z,99.99
2023-04-01T05:53:57.865Z,99.99
2023-04-01T05:54:57.888Z,99.99
2023-04-01T05:55:57.921Z,99.99
2023-04-01T05:56:58.000Z,99.99
2023-04-01T05:57:57.954Z,99.99
2023-04-01T05:58:57.979Z,99.99
2023-04-01T05:59:57.999Z,99.99
2023-04-01T06:01:08.811Z,99.99
2023-04-01T06:01:59.419Z,99.99
2023-04-01T06:02:58.117Z,99.99
2023-04-01T06:03:58.206Z,99.99
2023-04-01T06:04:58.154Z,99.99
2023-04-01T06:05:58.137Z,99.99
2023-04-01T06:06:58.158Z,99.99
2023-04-01T06:07:58.180Z,99.99
2023-04-01T06:08:58.201Z,99.99
2023-04-01T06:09:58.227Z,99.99
2023-04-01T06:10:58.258Z,99.99
2023-04-01T06:11:58.268Z,99.99
2023-04-01T06:12:58.300Z,99.99
2023-04-01T06:13:58.315Z,99.99
2023-04-01T06:14:58.336Z,99.99
2023-04-01T06:15:58.392Z,99.99
2023-04-01T06:16:58.373Z,99.99
2023-04-01T06:17:58.428Z,99.99
2023-04-01T06:18:58.428Z,99.99
2023-04-01T06:19:58.446Z,99.99
2023-04-01T06:20:58.477Z,99.99
2023-04-01T06:21:58.495Z,99.99
2023-04-01T06:22:58.530Z,99.99
2023-04-01T06:23:58.546Z,99.99
2023-04-01T06:24:58.559Z,99.99
2023-04-01T06:25:58.588Z,99.99
2023-04-01T06:26:58.606Z,99.99
2023-04-01T06:27:58.645Z,99.99
2023-04-01T06:28:58.652Z,99.99
2023-04-01T06:29:58.693Z,99.99
2023-04-01T06:30:58.753Z,99.99
2023-04-01T06:31:58.790Z,99.99
2023-04-01T06:32:58.812Z,99.99
2023-04-01T06:33:58.769Z,99.99
2023-04-01T06:34:58.791Z,99.99
2023-04-01T06:35:58.855Z,99.99
2023-04-01T06:36:58.848Z,99.99
2023-04-01T06:37:58.854Z,99.99
2023-04-01T06:38:58.876Z,99.99
2023-04-01T06:39:58.900Z,99.99
2023-04-01T06:40:58.935Z,99.99
2023-04-01T06:41:58.952Z,99.99
2023-04-01T06:42:58.971Z,99.99
2023-04-01T06:43:58.990Z,99.99
2023-04-01T06:44:59.013Z,99.99
2023-04-01T06:45:59.089Z,99.99
2023-04-01T06:46:59.059Z,99.99
2023-04-01T06:47:59.235Z,99.99
2023-04-01T06:48:59.105Z,99.99
2023-04-01T06:49:59.126Z,99.99
2023-04-01T06:50:59.152Z,99.99
2023-04-01T06:51:59.175Z,99.99
2023-04-01T06:52:59.194Z,99.99
2023-04-01T06:53:59.221Z,99.99
2023-04-01T06:54:59.245Z,99.99
2023-04-01T06:55:59.260Z,99.99
2023-04-01T06:56:59.348Z,99.99
2023-04-01T06:57:59.305Z,99.99
2023-04-01T06:58:59.333Z,99.99
2023-04-01T06:59:59.352Z,99.99
2023-04-01T07:00:59.423Z,99.99
2023-04-01T07:01:59.397Z,99.99
2023-04-01T07:02:59.474Z,99.99
2023-04-01T07:03:59.454Z,99.99
2023-04-01T07:04:59.466Z,99.99
2023-04-01T07:05:59.486Z,99.99
2023-04-01T07:06:59.510Z,99.99
2023-04-01T07:07:59.528Z,99.99
2023-04-01T07:08:59.565Z,99.99
2023-04-01T07:09:59.574Z,99.99
2023-04-01T07:10:59.614Z,99.99
2023-04-01T07:11:59.626Z,99.99
2023-04-01T07:12:59.641Z,99.99
2023-04-01T07:13:59.665Z,99.99
2023-04-01T07:14:59.686Z,99.99
2023-04-01T07:15:59.709Z,99.99
2023-04-01T07:16:59.791Z,99.99
2023-04-01T07:17:59.842Z,99.99
2023-04-01T07:18:59.788Z,99.99
2023-04-01T07:19:59.800Z,99.99
2023-04-01T07:20:59.823Z,99.99
2023-04-01T07:21:59.848Z,99.99
2023-04-01T07:22:59.867Z,99.99
2023-04-01T07:23:59.892Z,99.99
2023-04-01T07:24:59.915Z,99.99
2023-04-01T07:25:59.945Z,99.99
2023-04-01T07:26:59.963Z,99.99
2023-04-01T07:27:59.984Z,99.99
2023-04-01T07:29:00.009Z,99.99
2023-04-01T07:30:00.028Z,99.99
2023-04-01T07:31:00.138Z,99.99
2023-04-01T07:32:00.084Z,99.99
2023-04-01T07:33:00.145Z,99.99
2023-04-01T07:34:00.121Z,99.99
2023-04-01T07:35:00.164Z,99.99
2023-04-01T07:36:00.196Z,99.99
2023-04-01T07:37:00.192Z,99.99
2023-04-01T07:38:00.224Z,99.99
2023-04-01T07:39:00.324Z,99.99
2023-04-01T07:40:00.267Z,99.99
2023-04-01T07:41:00.283Z,99.99
2023-04-01T07:42:00.316Z,99.99
2023-04-01T07:43:00.332Z,99.99
2023-04-01T07:44:00.357Z,99.99
2023-04-01T07:45:00.386Z,99.99
2023-04-01T07:46:00.500Z,99.99
2023-04-01T07:47:00.437Z,99.99
2023-04-01T07:48:00.528Z,99.99
2023-04-01T07:49:00.479Z,99.99
2023-04-01T07:50:00.492Z,99.99
2023-04-01T07:51:00.513Z,99.99
2023-04-01T07:52:00.538Z,99.99
2023-04-01T07:53:00.571Z,99.99
2023-04-01T07:54:00.586Z,99.99
2023-04-01T07:55:00.622Z,99.99
2023-04-01T07:56:00.634Z,99.99
2023-04-01T07:57:00.675Z,99.99
2023-04-01T07:58:00.678Z,99.99
2023-04-01T07:59:00.702Z,99.99
2023-04-01T08:00:00.728Z,99.99
2023-04-01T08:01:00.764Z,99.99
2023-04-01T08:02:00.777Z,99.99
2023-04-01T08:03:00.847Z,99.99
2023-04-01T08:04:00.938Z,99.99
2023-04-01T08:05:00.926Z,99.99
2023-04-01T08:06:00.873Z,99.99
2023-04-01T08:07:00.894Z,99.99
2023-04-01T08:08:00.922Z,99.99
2023-04-01T08:09:00.958Z,99.99
2023-04-01T08:10:00.965Z,99.99
2023-04-01T08:11:00.989Z,99.99
2023-04-01T08:12:01.028Z,99.99
2023-04-01T08:13:01.035Z,99.99
2023-04-01T08:14:01.063Z,99.99
2023-04-01T08:15:01.087Z,99.99
2023-04-01T08:16:01.123Z,99.99
2023-04-01T08:17:01.132Z,99.99
2023-04-01T08:18:01.210Z,99.99
2023-04-01T08:19:01.179Z,99.99
2023-04-01T08:20:01.201Z,99.99
2023-04-01T08:21:01.225Z,99.99
2023-04-01T08:22:01.252Z,99.99
2023-04-01T08:23:01.278Z,99.99
2023-04-01T08:24:01.296Z,99.99
2023-04-01T08:25:01.323Z,99.99
2023-04-01T08:26:01.344Z,99.99
2023-04-01T08:27:01.369Z,99.99
2023-04-01T08:28:01.398Z,99.99
2023-04-01T08:29:01.422Z,99.99
2023-04-01T08:30:01.442Z,99.99
2023-04-01T08:31:01.477Z,99.99
2023-04-01T08:32:01.539Z,99.99
2023-04-01T08:33:01.557Z,99.99
2023-04-01T08:34:01.540Z,99.99
2023-04-01T08:35:01.593Z,99.99
2023-04-01T08:36:01.614Z,99.99
2023-04-01T08:37:01.618Z,99.99
2023-04-01T08:38:01.649Z,99.99
2023-04-01T08:39:01.669Z,99.99
2023-04-01T08:40:01.697Z,99.99
2023-04-01T08:41:01.732Z,99.99
2023-04-01T08:42:01.736Z,99.99
2023-04-01T08:43:01.761Z,99.99
2023-04-01T08:44:01.785Z,99.99
2023-04-01T08:45:01.816Z,99.99
2023-04-01T08:46:01.876Z,99.99
2023-04-01T08:47:01.869Z,99.99
2023-04-01T08:48:01.913Z,99.99
2023-04-01T08:49:01.910Z,99.99
2023-04-01T08:50:01.932Z,99.99
2023-04-01T08:51:02.394Z,99.99
2023-04-01T08:52:01.994Z,99.99
2023-04-01T08:53:02.012Z,99.99
2023-04-01T08:54:02.036Z,99.99
2023-04-01T08:55:02.055Z,99.99
2023-04-01T08:56:02.085Z,99.99
2023-04-01T08:57:02.147Z,99.99
2023-04-01T08:58:02.130Z,99.99
2023-04-01T08:59:02.181Z,99.99
2023-04-01T09:00:02.177Z,99.99
2023-04-01T09:01:02.205Z,99.99
2023-04-01T09:02:02.298Z,99.99
2023-04-01T09:03:02.495Z,99.99
2023-04-01T09:04:02.433Z,99.99
2023-04-01T09:05:02.307Z,99.99
2023-04-01T09:06:02.343Z,99.99
2023-04-01T09:07:02.353Z,99.99
2023-04-01T09:08:02.388Z,99.99
2023-04-01T09:09:02.402Z,99.99
2023-04-01T09:10:02.438Z,99.99
2023-04-01T09:11:02.457Z,99.99
2023-04-01T09:12:02.528Z,99.99
2023-04-01T09:13:02.510Z,99.99
2023-04-01T09:14:02.534Z,99.99
2023-04-01T09:15:02.559Z,99.99
2023-04-01T09:16:02.634Z,99.99
2023-04-01T09:17:02.604Z,99.99
2023-04-01T09:18:02.651Z,99.99
2023-04-01T09:19:02.653Z,99.99
2023-04-01T09:20:02.706Z,99.99
2023-04-01T09:21:02.712Z,99.99
2023-04-01T09:22:02.731Z,99.99
2023-04-01T09:23:02.759Z,99.99
2023-04-01T09:24:02.780Z,99.99
2023-04-01T09:25:02.808Z,99.99
2023-04-01T09:26:02.831Z,99.99
2023-04-01T09:27:02.871Z,99.99
2023-04-01T09:28:02.908Z,99.99
2023-04-01T09:29:02.933Z,99.99
2023-04-01T09:30:02.936Z,99.99
2023-04-01T09:31:03.003Z,99.99
2023-04-01T09:32:03.000Z,99.99
2023-04-01T09:33:03.034Z,99.99
2023-04-01T09:34:03.043Z,99.99
2023-04-01T09:35:03.065Z,99.99
2023-04-01T09:36:03.139Z,99.99
2023-04-01T09:37:03.128Z,99.99
2023-04-01T09:38:03.146Z,99.99
2023-04-01T09:39:03.177Z,99.99
2023-04-01T09:40:03.202Z,99.99
2023-04-01T09:41:03.223Z,99.99
2023-04-01T09:42:03.254Z,99.99
2023-04-01T09:43:03.276Z,99.99
2023-04-01T09:44:03.301Z,99.99
2023-04-01T09:45:03.370Z,99.99
2023-04-01T09:46:03.366Z,99.99
2023-04-01T09:47:03.380Z,99.99
2023-04-01T09:48:03.474Z,99.99
2023-04-01T09:49:03.433Z,99.99
2023-04-01T09:50:03.465Z,99.99
2023-04-01T09:51:03.489Z,99.99
2023-04-01T09:52:03.548Z,99.99
2023-04-01T09:53:03.582Z,99.99
2023-04-01T09:54:03.562Z,99.99
2023-04-01T09:55:03.614Z,99.99
2023-04-01T09:56:03.662Z,99.99
2023-04-01T09:57:03.701Z,99.99
2023-04-01T09:58:03.684Z,99.99
2023-04-01T09:59:03.696Z,99.99
2023-04-01T10:00:03.720Z,99.99
2023-04-01T10:01:03.747Z,99.99
2023-04-01T10:02:03.851Z,99.99
2023-04-01T10:03:03.869Z,99.99
2023-04-01T10:04:03.841Z,99.99
2023-04-01T10:05:03.857Z,99.99
2023-04-01T10:06:03.917Z,99.99
2023-04-01T10:07:03.916Z,99.99
2023-04-01T10:08:03.933Z,99.99
2023-04-01T10:09:03.965Z,99.99
2023-04-01T10:10:04.003Z,99.99
2023-04-01T10:11:04.025Z,99.99
2023-04-01T10:12:04.038Z,99.99
2023-04-01T10:13:04.065Z,99.99
2023-04-01T10:14:04.101Z,99.99
2023-04-01T10:15:04.124Z,99.99
2023-04-01T10:16:04.207Z,99.99
2023-04-01T10:17:04.173Z,99.99
2023-04-01T10:18:04.234Z,99.99
2023-04-01T10:19:04.224Z,99.99
2023-04-01T10:20:04.261Z,99.99
2023-04-01T10:21:04.285Z,99.99
2023-04-01T10:22:04.304Z,99.99
2023-04-01T10:23:04.332Z,99.99
2023-04-01T10:24:04.366Z,99.99
2023-04-01T10:25:06.322Z,99.99
2023-04-01T10:26:04.410Z,99.99
2023-04-01T10:27:04.441Z,99.99
2023-04-01T10:28:04.472Z,99.99
2023-04-01T10:29:04.488Z,99.99
2023-04-01T10:30:04.517Z,99.99
2023-04-01T10:31:04.546Z,99.99
2023-04-01T10:32:04.614Z,99.99
2023-04-01T10:33:04.664Z,99.99
2023-04-01T10:34:04.622Z,99.99
2023-04-01T10:35:04.648Z,99.99
2023-04-01T10:36:04.683Z,99.99
2023-04-01T10:37:04.702Z,99.99
2023-04-01T10:38:04.735Z,99.99
2023-04-01T10:39:04.771Z,99.99
2023-04-01T10:40:04.782Z,99.99
2023-04-01T10:41:04.807Z,99.99
2023-04-01T10:42:04.831Z,99.99
2023-04-01T10:43:04.857Z,99.99
2023-04-01T10:44:04.879Z,99.99
2023-04-01T10:45:04.931Z,99.99
2023-04-01T10:46:04.938Z,99.99
2023-04-01T10:47:04.962Z,99.99
2023-04-01T10:48:05.040Z,99.99
2023-04-01T10:49:05.019Z,99.99
2023-04-01T10:50:05.044Z,99.99
2023-04-01T10:51:05.111Z,99.99
2023-04-01T10:52:05.103Z,99.99
2023-04-01T10:53:07.273Z,99.99
2023-04-01T10:54:05.145Z,99.99
2023-04-01T10:55:05.170Z,99.99
2023-04-01T10:56:05.199Z,99.99
2023-04-01T10:57:05.296Z,99.99
2023-04-01T10:58:05.261Z,99.99
2023-04-01T10:59:05.282Z,99.99
2023-04-01T11:00:05.308Z,99.99
2023-04-01T11:01:05.425Z,99.99
2023-04-01T11:02:11.412Z,99.99
2023-04-01T11:03:05.441Z,99.99
2023-04-01T11:04:05.420Z,99.99
2023-04-01T11:05:05.441Z,99.99
2023-04-01T11:06:05.468Z,99.99
2023-04-01T11:07:05.506Z,99.99
2023-04-01T11:08:07.036Z,99.99
2023-04-01T11:09:05.548Z,99.99
2023-04-01T11:10:05.576Z,99.99
2023-04-01T11:11:05.605Z,99.99
2023-04-01T11:12:05.630Z,99.99
2023-04-01T11:13:05.666Z,99.99
2023-04-01T11:14:05.689Z,99.96
2023-04-01T11:15:05.710Z,99.58
2023-04-01T11:16:05.773Z,99.48
2023-04-01T11:17:05.768Z,99.39
2023-04-01T11:18:05.856Z,99.68
2023-04-01T11:19:05.824Z,99.96
2023-04-01T11:20:05.848Z,99.87
2023-04-01T11:21:05.875Z,99.48
2023-04-01T11:22:05.897Z,99.99
2023-04-01T11:23:05.930Z,99.19
2023-04-01T11:24:06.189Z,98.43
2023-04-01T11:25:05.982Z,99.19
2023-04-01T11:26:06.020Z,99.82
2023-04-01T11:27:06.083Z,99.10
2023-04-01T11:28:06.076Z,98.52
2023-04-01T11:29:06.095Z,97.42
2023-04-01T11:30:06.122Z,97.38
2023-04-01T11:31:06.222Z,97.47
2023-04-01T11:32:06.180Z,97.38
2023-04-01T11:33:06.300Z,97.76
2023-04-01T11:34:06.241Z,96.70
2023-04-01T11:35:06.258Z,96.70
2023-04-01T11:36:06.285Z,96.66
2023-04-01T11:37:06.318Z,97.42
2023-04-01T11:38:06.340Z,97.61
2023-04-01T11:39:06.382Z,98.00
2023-04-01T11:40:06.394Z,97.80
2023-04-01T11:41:06.422Z,98.57
2023-04-01T11:42:06.448Z,98.91
2023-04-01T11:43:06.474Z,99.19
2023-04-01T11:44:06.506Z,99.19
2023-04-01T11:45:06.529Z,99.58
2023-04-01T11:46:06.622Z,99.99
2023-04-01T11:47:06.582Z,99.99
2023-04-01T11:48:06.662Z,99.99
2023-04-01T11:49:06.645Z,99.99
2023-04-01T11:50:06.689Z,99.99
2023-04-01T11:51:06.691Z,99.99
2023-04-01T11:52:06.736Z,99.99
2023-04-01T11:53:06.762Z,99.99
2023-04-01T11:54:06.779Z,99.99
2023-04-01T11:55:06.796Z,99.99
2023-04-01T11:56:06.826Z,99.99
2023-04-01T11:57:06.894Z,99.99
2023-04-01T11:58:06.907Z,99.99
2023-04-01T11:59:06.897Z,99.99
2023-04-01T12:00:06.930Z,99.99
2023-04-01T12:01:06.974Z,99.99
2023-04-01T12:02:06.981Z,99.99
2023-04-01T12:03:07.146Z,99.99
2023-04-01T12:04:07.166Z,99.99
2023-04-01T12:05:07.065Z,99.99
2023-04-01T12:06:07.093Z,99.99
2023-04-01T12:07:07.118Z,99.99
2023-04-01T12:08:07.150Z,99.99
2023-04-01T12:09:07.172Z,99.99
2023-04-01T12:10:07.201Z,99.99
2023-04-01T12:11:07.226Z,99.99
2023-04-01T12:12:07.250Z,99.99
2023-04-01T12:13:07.274Z,99.99
2023-04-01T12:14:07.316Z,99.99
2023-04-01T12:15:07.327Z,99.99
2023-04-01T12:16:07.404Z,99.99
2023-04-01T12:17:07.388Z,99.99
2023-04-01T12:18:07.468Z,99.99
2023-04-01T12:19:07.438Z,99.99
2023-04-01T12:20:07.473Z,99.99
2023-04-01T12:21:07.496Z,99.99
2023-04-01T12:22:07.527Z,99.99
2023-04-01T12:23:07.546Z,99.99
2023-04-01T12:24:07.577Z,99.99
2023-04-01T12:25:07.604Z,99.99
2023-04-01T12:26:07.629Z,99.99
2023-04-01T12:27:07.646Z,99.99
2023-04-01T12:28:07.680Z,99.99
2023-04-01T12:29:07.699Z,99.99
2023-04-01T12:30:07.733Z,99.99
2023-04-01T12:31:07.768Z,99.99
2023-04-01T12:32:07.826Z,99.99
2023-04-01T12:33:07.814Z,99.99
2023-04-01T12:34:07.829Z,99.99
2023-04-01T12:35:07.898Z,99.99
2023-04-01T12:36:07.895Z,99.99
2023-04-01T12:37:07.914Z,99.99
2023-04-01T12:38:07.934Z,99.99
2023-04-01T12:39:07.960Z,99.99
2023-04-01T12:40:07.981Z,99.99
2023-04-01T12:41:08.024Z,99.99
2023-04-01T12:42:08.040Z,99.99
2023-04-01T12:43:08.065Z,99.99
2023-04-01T12:44:08.085Z,99.99
2023-04-01T12:45:08.110Z,99.99
2023-04-01T12:46:08.183Z,99.99
2023-04-01T12:47:08.158Z,99.99
2023-04-01T12:48:08.206Z,99.99
2023-04-01T12:49:08.215Z,99.99
2023-04-01T12:50:08.277Z,99.99
2023-04-01T12:51:08.266Z,99.99
2023-04-01T12:52:08.288Z,99.99
2023-04-01T12:53:08.333Z,99.99